Terminal Aerodrome Forecast
Issued by NWS Kansas City/Pleasant Hill, MO

Home | Current Version | Previous Version | Text Only | Print | Product List | Glossary On
Versions: 1 2 3 4 5 6 7 8 9 10 11 12 13 14 15 16 17 18 19 20
000
FTUS43 KEAX 191700
TAFMCI
TAF
KMCI 191737Z 1918/2018 31005KT P6SM BKN060
     FM192200 33016G24KT 5SM -RA VCTS OVC025CB
     FM200100 30012G20KT 5SM -RA OVC015
     FM200400 31012G20KT P6SM BKN060
     FM201500 31015G25KT P6SM SKC=

USA.gov is the U.S. government's official web portal to all federal, state and local government web resources and services.